Terminal Aerodrome Forecast
Issued by NWS

Home | Current Version | Previous Version | Text Only | Print | Product List | Glossary On
Versions: 1 2 3 4 5 6 7 8 9 10 11 12 13 14
000
FTUS45 KABQ 051139
TAFLVS
TAF
KLVS 051139Z 0512/0612 21010KT P6SM BKN110
     FM051600 22013G20KT P6SM SCT070
     FM052000 22018G25KT P6SM VCSH SCT060 BKN100
     FM060000 22013KT P6SM SCT110
     FM060600 24008KT P6SM SCT150=

USA.gov is the U.S. government's official web portal to all federal, state and local government web resources and services.